PWSweather.com
Personal Weather Stations
Station Observations

YeovilGB

Lat: 50.949, Lon: -2.627

Elevation: 70

Station Type: Vantage Pro

http://www.yeovil-weather.me.uk/

Latest ConditionsUpdated 2:00:03 PM GMT Thursday, Sep 21, 2017
Currently Today's Max Today's Min Today's Average
Temperature 59.2°F15.1°C 60.2°F15.7°C 56.7°F13.7°C 57.9°F14.4°C
Dew Point 56.6°F13.7°C 59.4°F15.2°C 55.5°F13.1°C 56.7°F13.7°C
Winds Calm Calm 6.9 mph S11.1 kmh S - 2.5 mph 4.0 kmh
Wind Gusts 2.3 mph3.7 kmh 12.7 mph20.4 kmh - -
Humidity 91% 97% 90% 96%
Pressure 29.96 in1014.6 mb 29.97 in1014.9 mb 29.90 in1012.5 mb -
Precipitation - 0.13 in3.3 mm - -
Hour Temp Dew Point Humidity Winds Wind Gusts Pressure Precip Precip Rate Daily Precip Total
02:00 PM 59.2°F15.1°C 56.6°F13.7°C 91% Calm Calm 2.3 mph3.7 kmh 29.96 in1014.6 mb - 0.00 in0.0 mm 0.13 in3.3 mm
01:50 PM 58.9°F14.9°C 56.0°F13.3°C 90% 1.2 mph NW1.9 kmh NW 5.8 mph9.3 kmh 29.96 in1014.6 mb - 0.00 in0.0 mm 0.13 in3.3 mm
01:40 PM 59.2°F15.1°C 56.6°F13.7°C 91% Calm Calm -- 29.96 in1014.6 mb - 0.00 in0.0 mm 0.13 in3.3 mm
01:30 PM 59.5°F15.3°C 56.9°F13.8°C 91% Calm Calm 2.3 mph3.7 kmh 29.95 in1014.2 mb - 0.00 in0.0 mm 0.13 in3.3 mm
01:20 PM 59.7°F15.4°C 57.4°F14.1°C 92% 1.2 mph WNW1.9 kmh WNW 3.5 mph5.6 kmh 29.95 in1014.2 mb - 0.00 in0.0 mm 0.13 in3.3 mm
01:10 PM 59.6°F15.3°C 57.6°F14.2°C 93% Calm Calm -- 29.95 in1014.2 mb - 0.00 in0.0 mm 0.13 in3.3 mm
01:00 PM 59.1°F15.1°C 57.1°F13.9°C 93% Calm Calm -- 29.95 in1014.2 mb - 0.00 in0.0 mm 0.13 in3.3 mm
12:50 PM 58.7°F14.8°C 56.4°F13.6°C 92% Calm Calm -- 29.94 in1013.9 mb - 0.00 in0.0 mm 0.13 in3.3 mm
12:40 PM 59.0°F15.0°C 56.7°F13.7°C 92% Calm Calm 4.6 mph7.4 kmh 29.94 in1013.9 mb - 0.00 in0.0 mm 0.13 in3.3 mm
12:30 PM 59.4°F15.2°C 57.7°F14.3°C 94% Calm Calm 4.6 mph7.4 kmh 29.93 in1013.5 mb - 0.00 in0.0 mm 0.13 in3.3 mm
12:20 PM 59.8°F15.4°C 58.4°F14.7°C 95% Calm Calm -- 29.93 in1013.5 mb - 0.00 in0.0 mm 0.13 in3.3 mm
12:10 PM 60.0°F15.6°C 58.9°F14.9°C 96% Calm Calm -- 29.93 in1013.5 mb - 0.00 in0.0 mm 0.13 in3.3 mm
12:00 PM 59.9°F15.5°C 58.8°F14.9°C 96% Calm Calm -- 29.93 in1013.5 mb - 0.00 in0.0 mm 0.13 in3.3 mm
11:50 AM 59.7°F15.4°C 58.6°F14.8°C 96% Calm Calm -- 29.93 in1013.5 mb - 0.00 in0.0 mm 0.13 in3.3 mm
11:40 AM 59.5°F15.3°C 58.4°F14.7°C 96% Calm Calm -- 29.93 in1013.5 mb - 0.00 in0.0 mm 0.13 in3.3 mm
11:30 AM 59.1°F15.1°C 58.0°F14.4°C 96% Calm Calm -- 29.92 in1013.2 mb - 0.01 in0.3 mm 0.13 in3.3 mm
11:20 AM 59.2°F15.1°C 57.8°F14.3°C 95% Calm Calm -- 29.92 in1013.2 mb - 0.00 in0.0 mm 0.13 in3.3 mm
11:10 AM 60.2°F15.7°C 59.4°F15.2°C 97% 1.2 mph NW1.9 kmh NW 3.5 mph5.6 kmh 29.91 in1012.9 mb - 0.00 in0.0 mm 0.13 in3.3 mm
11:00 AM 60.0°F15.6°C 59.2°F15.1°C 97% Calm Calm -- 29.91 in1012.9 mb - 0.00 in0.0 mm 0.13 in3.3 mm
10:50 AM 59.6°F15.3°C 58.8°F14.9°C 97% 4.6 mph S7.4 kmh S 11.5 mph18.5 kmh 29.91 in1012.9 mb - 0.00 in0.0 mm 0.13 in3.3 mm
10:40 AM 59.3°F15.2°C 58.5°F14.7°C 97% 4.6 mph S7.4 kmh S 10.4 mph16.7 kmh 29.90 in1012.5 mb - 0.00 in0.0 mm 0.13 in3.3 mm
10:30 AM 59.2°F15.1°C 58.3°F14.6°C 97% 3.5 mph S5.6 kmh S 12.7 mph20.4 kmh 29.90 in1012.5 mb - 0.00 in0.0 mm 0.13 in3.3 mm
10:20 AM 59.1°F15.1°C 58.2°F14.6°C 97% 2.3 mph S3.7 kmh S 5.8 mph9.3 kmh 29.90 in1012.5 mb - 0.01 in0.3 mm 0.13 in3.3 mm
10:10 AM 58.9°F14.9°C 58.1°F14.5°C 97% 1.2 mph SW1.9 kmh SW 6.9 mph11.1 kmh 29.90 in1012.5 mb - 0.01 in0.3 mm 0.13 in3.3 mm
10:00 AM 58.8°F14.9°C 58.0°F14.4°C 97% 4.6 mph S7.4 kmh S 12.7 mph20.4 kmh 29.90 in1012.5 mb - 0.01 in0.3 mm 0.12 in3.0 mm
09:50 AM 58.6°F14.8°C 57.8°F14.3°C 97% 4.6 mph S7.4 kmh S 9.2 mph14.8 kmh 29.90 in1012.5 mb - 0.01 in0.3 mm 0.11 in2.8 mm
09:40 AM 58.6°F14.8°C 57.8°F14.3°C 97% 3.5 mph S5.6 kmh S 11.5 mph18.5 kmh 29.90 in1012.5 mb - 0.01 in0.3 mm 0.10 in2.5 mm
09:30 AM 58.5°F14.7°C 57.7°F14.3°C 97% 4.6 mph SSE7.4 kmh SSE 10.4 mph16.7 kmh 29.90 in1012.5 mb - 0.01 in0.3 mm 0.09 in2.3 mm
09:20 AM 58.4°F14.7°C 57.6°F14.2°C 97% 2.3 mph S3.7 kmh S 10.4 mph16.7 kmh 29.90 in1012.5 mb - 0.01 in0.3 mm 0.09 in2.3 mm
09:10 AM 58.4°F14.7°C 57.5°F14.2°C 97% 6.9 mph S11.1 kmh S 11.5 mph18.5 kmh 29.90 in1012.5 mb - 0.00 in0.0 mm 0.08 in2.0 mm
09:00 AM 58.2°F14.6°C 57.4°F14.1°C 97% 3.5 mph S5.6 kmh S 10.4 mph16.7 kmh 29.90 in1012.5 mb - 0.00 in0.0 mm 0.08 in2.0 mm
08:50 AM 58.1°F14.5°C 57.2°F14.0°C 97% 5.8 mph S9.3 kmh S 11.5 mph18.5 kmh 29.90 in1012.5 mb - 0.00 in0.0 mm 0.08 in2.0 mm
08:40 AM 57.9°F14.4°C 57.1°F13.9°C 97% 6.9 mph SSE11.1 kmh SSE 11.5 mph18.5 kmh 29.91 in1012.9 mb - 0.01 in0.3 mm 0.08 in2.0 mm
08:30 AM 57.8°F14.3°C 56.7°F13.7°C 96% 3.5 mph S5.6 kmh S 11.5 mph18.5 kmh 29.90 in1012.5 mb - 0.00 in0.0 mm 0.07 in1.8 mm
08:20 AM 57.8°F14.3°C 56.7°F13.7°C 96% 6.9 mph S11.1 kmh S 11.5 mph18.5 kmh 29.90 in1012.5 mb - 0.00 in0.0 mm 0.07 in1.8 mm
08:10 AM 57.8°F14.3°C 56.7°F13.7°C 96% 3.5 mph S5.6 kmh S 9.2 mph14.8 kmh 29.90 in1012.5 mb - 0.01 in0.3 mm 0.07 in1.8 mm
08:00 AM 57.8°F14.3°C 56.6°F13.7°C 96% 3.5 mph SSE5.6 kmh SSE 10.4 mph16.7 kmh 29.90 in1012.5 mb - 0.00 in0.0 mm 0.06 in1.5 mm
07:50 AM 57.6°F14.2°C 56.8°F13.8°C 97% 1.2 mph S1.9 kmh S 4.6 mph7.4 kmh 29.90 in1012.5 mb - 0.01 in0.3 mm 0.06 in1.5 mm
07:40 AM 57.6°F14.2°C 56.8°F13.8°C 97% 2.3 mph SSE3.7 kmh SSE 10.4 mph16.7 kmh 29.90 in1012.5 mb - 0.01 in0.3 mm 0.06 in1.5 mm
07:30 AM 57.5°F14.2°C 56.7°F13.7°C 97% 1.2 mph SE1.9 kmh SE 6.9 mph11.1 kmh 29.90 in1012.5 mb - 0.01 in0.3 mm 0.06 in1.5 mm
07:20 AM 57.4°F14.1°C 56.6°F13.7°C 97% 4.6 mph S7.4 kmh S 9.2 mph14.8 kmh 29.90 in1012.5 mb - 0.00 in0.0 mm 0.05 in1.3 mm
07:10 AM 57.3°F14.1°C 56.2°F13.4°C 96% 3.5 mph S5.6 kmh S 10.4 mph16.7 kmh 29.90 in1012.5 mb - 0.00 in0.0 mm 0.05 in1.3 mm
07:00 AM 57.2°F14.0°C 56.1°F13.4°C 96% 3.5 mph S5.6 kmh S 8.1 mph13.0 kmh 29.90 in1012.5 mb - 0.01 in0.3 mm 0.05 in1.3 mm
06:50 AM 57.2°F14.0°C 56.1°F13.4°C 96% 3.5 mph SSE5.6 kmh SSE 9.2 mph14.8 kmh 29.90 in1012.5 mb - 0.00 in0.0 mm 0.04 in1.0 mm
06:40 AM 57.1°F13.9°C 56.0°F13.3°C 96% 4.6 mph S7.4 kmh S 12.7 mph20.4 kmh 29.90 in1012.5 mb - 0.00 in0.0 mm 0.04 in1.0 mm
06:30 AM 57.0°F13.9°C 55.9°F13.3°C 96% 4.6 mph S7.4 kmh S 8.1 mph13.0 kmh 29.90 in1012.5 mb - 0.00 in0.0 mm 0.04 in1.0 mm
06:20 AM 56.9°F13.8°C 55.8°F13.2°C 96% 3.5 mph S5.6 kmh S 5.8 mph9.3 kmh 29.91 in1012.9 mb - 0.00 in0.0 mm 0.04 in1.0 mm
06:10 AM 56.8°F13.8°C 55.7°F13.2°C 96% 2.3 mph S3.7 kmh S 10.4 mph16.7 kmh 29.91 in1012.9 mb - 0.00 in0.0 mm 0.04 in1.0 mm
06:00 AM 56.8°F13.8°C 55.7°F13.2°C 96% 5.8 mph S9.3 kmh S 9.2 mph14.8 kmh 29.91 in1012.9 mb - 0.00 in0.0 mm 0.04 in1.0 mm
05:50 AM 56.8°F13.8°C 55.7°F13.2°C 96% Calm Calm -- 29.90 in1012.5 mb - 0.00 in0.0 mm 0.04 in1.0 mm
05:40 AM 56.8°F13.8°C 55.7°F13.2°C 96% 3.5 mph SSE5.6 kmh SSE 8.1 mph13.0 kmh 29.90 in1012.5 mb - 0.01 in0.3 mm 0.04 in1.0 mm
05:30 AM 56.7°F13.7°C 55.6°F13.1°C 96% 3.5 mph SSE5.6 kmh SSE 8.1 mph13.0 kmh 29.90 in1012.5 mb - 0.00 in0.0 mm 0.03 in0.8 mm
05:20 AM 56.8°F13.8°C 55.7°F13.2°C 96% 1.2 mph SSE1.9 kmh SSE 1.2 mph1.9 kmh 29.90 in1012.5 mb - 0.00 in0.0 mm 0.03 in0.8 mm
05:10 AM 57.0°F13.9°C 55.9°F13.3°C 96% 4.6 mph SE7.4 kmh SE 9.2 mph14.8 kmh 29.90 in1012.5 mb - 0.00 in0.0 mm 0.03 in0.8 mm
05:00 AM 57.1°F13.9°C 56.0°F13.3°C 96% 2.3 mph SSE3.7 kmh SSE 5.8 mph9.3 kmh 29.90 in1012.5 mb - 0.01 in0.3 mm 0.03 in0.8 mm
04:50 AM 57.1°F13.9°C 56.0°F13.3°C 96% 1.2 mph SSE1.9 kmh SSE 8.1 mph13.0 kmh 29.91 in1012.9 mb - 0.00 in0.0 mm 0.02 in0.5 mm
04:40 AM 57.1°F13.9°C 56.0°F13.3°C 96% Calm Calm -- 29.91 in1012.9 mb - 0.00 in0.0 mm 0.02 in0.5 mm
04:30 AM 57.1°F13.9°C 56.0°F13.3°C 96% 2.3 mph SSE3.7 kmh SSE 3.5 mph5.6 kmh 29.91 in1012.9 mb - 0.00 in0.0 mm 0.02 in0.5 mm
04:20 AM 57.1°F13.9°C 56.0°F13.3°C 96% Calm Calm -- 29.91 in1012.9 mb - 0.01 in0.3 mm 0.02 in0.5 mm
04:10 AM 57.0°F13.9°C 55.9°F13.3°C 96% 3.5 mph S5.6 kmh S 8.1 mph13.0 kmh 29.91 in1012.9 mb - 0.00 in0.0 mm 0.02 in0.5 mm
04:00 AM 56.9°F13.8°C 55.8°F13.2°C 96% Calm Calm -- 29.91 in1012.9 mb - 0.00 in0.0 mm 0.02 in0.5 mm
03:50 AM 56.9°F13.8°C 55.8°F13.2°C 96% Calm Calm -- 29.92 in1013.2 mb - 0.01 in0.3 mm 0.02 in0.5 mm
03:40 AM 56.8°F13.8°C 55.7°F13.2°C 96% Calm Calm 2.3 mph3.7 kmh 29.92 in1013.2 mb - 0.00 in0.0 mm 0.01 in0.3 mm
03:30 AM 56.8°F13.8°C 55.7°F13.2°C 96% Calm Calm 4.6 mph7.4 kmh 29.92 in1013.2 mb - 0.00 in0.0 mm 0.01 in0.3 mm
03:20 AM 56.8°F13.8°C 55.7°F13.2°C 96% 4.6 mph S7.4 kmh S 10.4 mph16.7 kmh 29.92 in1013.2 mb - 0.00 in0.0 mm 0.01 in0.3 mm
03:10 AM 56.8°F13.8°C 55.7°F13.2°C 96% 5.8 mph SSE9.3 kmh SSE 9.2 mph14.8 kmh 29.92 in1013.2 mb - 0.00 in0.0 mm 0.01 in0.3 mm
03:00 AM 56.9°F13.8°C 55.5°F13.1°C 95% 1.2 mph S1.9 kmh S 1.2 mph1.9 kmh 29.92 in1013.2 mb - 0.00 in0.0 mm 0.01 in0.3 mm
02:50 AM 57.1°F13.9°C 56.0°F13.3°C 96% 6.9 mph S11.1 kmh S 11.5 mph18.5 kmh 29.93 in1013.5 mb - 0.00 in0.0 mm 0.01 in0.3 mm
02:40 AM 57.2°F14.0°C 56.1°F13.4°C 96% 2.3 mph S3.7 kmh S 6.9 mph11.1 kmh 29.93 in1013.5 mb - 0.01 in0.3 mm 0.01 in0.3 mm
02:30 AM 57.3°F14.1°C 56.1°F13.4°C 96% Calm Calm -- 29.93 in1013.5 mb - 0.00 in0.0 mm 0.00 in0.0 mm
02:20 AM 57.3°F14.1°C 56.2°F13.4°C 96% Calm Calm 5.8 mph9.3 kmh 29.93 in1013.5 mb - 0.00 in0.0 mm 0.00 in0.0 mm
02:10 AM 57.3°F14.1°C 56.2°F13.4°C 96% 3.5 mph S5.6 kmh S 8.1 mph13.0 kmh 29.94 in1013.9 mb - 0.00 in0.0 mm 0.00 in0.0 mm
02:00 AM 57.3°F14.1°C 56.2°F13.4°C 96% 1.2 mph SSW1.9 kmh SSW 5.8 mph9.3 kmh 29.94 in1013.9 mb - 0.00 in0.0 mm 0.00 in0.0 mm
01:50 AM 57.3°F14.1°C 55.9°F13.3°C 95% 2.3 mph S3.7 kmh S 10.4 mph16.7 kmh 29.94 in1013.9 mb - 0.00 in0.0 mm 0.00 in0.0 mm
01:40 AM 57.3°F14.1°C 55.9°F13.3°C 95% 3.5 mph SSE5.6 kmh SSE 9.2 mph14.8 kmh 29.95 in1014.2 mb - 0.00 in0.0 mm 0.00 in0.0 mm
01:30 AM 57.2°F14.0°C 55.8°F13.2°C 95% 1.2 mph SE1.9 kmh SE 10.4 mph16.7 kmh 29.95 in1014.2 mb - 0.00 in0.0 mm 0.00 in0.0 mm
01:20 AM 57.2°F14.0°C 55.8°F13.2°C 95% 2.3 mph SSE3.7 kmh SSE 8.1 mph13.0 kmh 29.95 in1014.2 mb - 0.00 in0.0 mm 0.00 in0.0 mm
01:10 AM 57.2°F14.0°C 55.8°F13.2°C 95% 4.6 mph S7.4 kmh S 10.4 mph16.7 kmh 29.95 in1014.2 mb - 0.00 in0.0 mm 0.00 in0.0 mm
01:00 AM 57.2°F14.0°C 55.8°F13.2°C 95% 2.3 mph S3.7 kmh S 5.8 mph9.3 kmh 29.96 in1014.6 mb - 0.00 in0.0 mm 0.00 in0.0 mm
12:50 AM 57.2°F14.0°C 55.8°F13.2°C 95% 4.6 mph S7.4 kmh S 9.2 mph14.8 kmh 29.96 in1014.6 mb - 0.00 in0.0 mm 0.00 in0.0 mm
12:40 AM 57.2°F14.0°C 55.8°F13.2°C 95% 4.6 mph S7.4 kmh S 9.2 mph14.8 kmh 29.96 in1014.6 mb - 0.00 in0.0 mm 0.00 in0.0 mm
12:30 AM 57.2°F14.0°C 55.5°F13.1°C 94% 2.3 mph SSE3.7 kmh SSE 10.4 mph16.7 kmh 29.96 in1014.6 mb - 0.00 in0.0 mm 0.00 in0.0 mm
12:20 AM 57.3°F14.1°C 55.6°F13.1°C 94% 5.8 mph S9.3 kmh S 11.5 mph18.5 kmh 29.97 in1014.9 mb - 0.00 in0.0 mm 0.00 in0.0 mm
12:10 AM 57.5°F14.2°C 55.8°F13.2°C 94% 6.9 mph S11.1 kmh S 9.2 mph14.8 kmh 29.97 in1014.9 mb - 0.00 in0.0 mm 0.00 in0.0 mm
12:00 AM 57.6°F14.2°C 55.9°F13.3°C 94% 2.3 mph S3.7 kmh S 8.1 mph13.0 kmh 29.97 in1014.9 mb - 0.00 in0.0 mm 0.00 in0.0 mm